sensor_id;sensor_type;location;lat;lon;timestamp;pressure;altitude;pressure_sealevel;temperature;humidity
14232;BME280;7200;52.194;9.900;2023-04-01T00:01:59;98358.94;;;13.36;100.00
14232;BME280;7200;52.194;9.900;2023-04-01T00:04:25;98335.16;;;13.02;100.00
14232;BME280;7200;52.194;9.900;2023-04-01T00:06:50;98345.84;;;13.12;100.00
14232;BME280;7200;52.194;9.900;2023-04-01T00:09:17;98344.03;;;13.01;100.00
14232;BME280;7200;52.194;9.900;2023-04-01T00:11:42;98334.91;;;12.82;100.00
14232;BME280;7200;52.194;9.900;2023-04-01T00:14:08;98353.41;;;13.05;100.00
14232;BME280;7200;52.194;9.900;2023-04-01T00:16:33;98349.69;;;13.08;100.00
14232;BME280;7200;52.194;9.900;2023-04-01T00:18:58;98295.41;;;12.58;100.00
14232;BME280;7200;52.194;9.900;2023-04-01T00:21:25;98315.69;;;12.69;100.00
14232;BME280;7200;52.194;9.900;2023-04-01T00:23:51;98329.16;;;12.77;100.00
14232;BME280;7200;52.194;9.900;2023-04-01T00:26:16;98365.59;;;13.08;100.00
14232;BME280;7200;52.194;9.900;2023-04-01T00:28:44;98331.06;;;12.98;100.00
14232;BME280;7200;52.194;9.900;2023-04-01T00:31:10;98325.50;;;13.01;100.00
14232;BME280;7200;52.194;9.900;2023-04-01T00:33:36;98303.31;;;12.81;100.00
14232;BME280;7200;52.194;9.900;2023-04-01T00:36:09;98337.91;;;13.12;100.00
14232;BME280;7200;52.194;9.900;2023-04-01T00:38:36;98311.34;;;12.91;100.00
14232;BME280;7200;52.194;9.900;2023-04-01T00:41:02;98310.28;;;12.82;100.00
14232;BME280;7200;52.194;9.900;2023-04-01T00:43:27;98318.69;;;12.87;100.00
14232;BME280;7200;52.194;9.900;2023-04-01T00:45:53;98332.97;;;13.07;100.00
14232;BME280;7200;52.194;9.900;2023-04-01T00:48:23;98331.16;;;13.08;100.00
14232;BME280;7200;52.194;9.900;2023-04-01T00:50:54;98354.00;;;13.20;100.00
14232;BME280;7200;52.194;9.900;2023-04-01T00:53:21;98316.03;;;12.98;100.00
14232;BME280;7200;52.194;9.900;2023-04-01T00:56:03;98323.72;;;12.90;100.00
14232;BME280;7200;52.194;9.900;2023-04-01T00:58:31;98330.72;;;12.91;100.00
14232;BME280;7200;52.194;9.900;2023-04-01T01:00:59;98322.66;;;12.81;100.00
14232;BME280;7200;52.194;9.900;2023-04-01T01:03:25;98280.09;;;12.39;100.00
14232;BME280;7200;52.194;9.900;2023-04-01T01:06:04;98327.13;;;12.81;100.00
14232;BME280;7200;52.194;9.900;2023-04-01T01:09:01;98306.53;;;12.62;100.00
14232;BME280;7200;52.194;9.900;2023-04-01T01:11:42;98353.31;;;12.84;100.00
14232;BME280;7200;52.194;9.900;2023-04-01T01:14:31;98363.06;;;12.83;100.00
14232;BME280;7200;52.194;9.900;2023-04-01T01:17:11;98349.63;;;12.64;100.00
14232;BME280;7200;52.194;9.900;2023-04-01T01:27:38;98360.78;;;12.68;100.00
14232;BME280;7200;52.194;9.900;2023-04-01T01:33:16;98353.59;;;12.58;100.00
14232;BME280;7200;52.194;9.900;2023-04-01T01:35:48;98382.81;;;12.68;100.00
14232;BME280;7200;52.194;9.900;2023-04-01T01:38:17;98388.34;;;12.76;100.00
14232;BME280;7200;52.194;9.900;2023-04-01T01:40:47;98395.66;;;12.84;100.00
14232;BME280;7200;52.194;9.900;2023-04-01T01:43:16;98370.63;;;12.65;100.00
14232;BME280;7200;52.194;9.900;2023-04-01T01:45:47;98399.91;;;12.87;100.00
14232;BME280;7200;52.194;9.900;2023-04-01T01:48:16;98367.03;;;12.55;100.00
14232;BME280;7200;52.194;9.900;2023-04-01T01:50:43;98383.25;;;12.51;100.00
14232;BME280;7200;52.194;9.900;2023-04-01T01:53:11;98356.19;;;12.24;100.00
14232;BME280;7200;52.194;9.900;2023-04-01T01:55:41;98375.28;;;12.28;100.00
14232;BME280;7200;52.194;9.900;2023-04-01T01:58:27;98410.94;;;12.69;100.00
14232;BME280;7200;52.194;9.900;2023-04-01T02:00:59;98382.69;;;12.58;100.00
14232;BME280;7200;52.194;9.900;2023-04-01T02:03:27;98347.28;;;12.14;100.00
14232;BME280;7200;52.194;9.900;2023-04-01T02:05:57;98412.38;;;12.62;100.00
14232;BME280;7200;52.194;9.900;2023-04-01T02:08:26;98413.84;;;12.77;100.00
14232;BME280;7200;52.194;9.900;2023-04-01T02:11:10;98388.09;;;12.68;100.00
14232;BME280;7200;52.194;9.900;2023-04-01T02:13:48;98397.25;;;12.75;100.00
14232;BME280;7200;52.194;9.900;2023-04-01T02:16:19;98410.94;;;12.92;100.00
14232;BME280;7200;52.194;9.900;2023-04-01T02:18:48;98361.16;;;12.63;100.00
14232;BME280;7200;52.194;9.900;2023-04-01T02:21:15;98361.25;;;12.61;100.00
14232;BME280;7200;52.194;9.900;2023-04-01T02:23:42;98390.38;;;12.95;100.00
14232;BME280;7200;52.194;9.900;2023-04-01T02:26:09;98356.81;;;12.51;100.00
14232;BME280;7200;52.194;9.900;2023-04-01T02:28:37;98360.44;;;12.61;100.00
14232;BME280;7200;52.194;9.900;2023-04-01T02:31:03;98372.56;;;12.75;100.00
14232;BME280;7200;52.194;9.900;2023-04-01T02:33:30;98366.81;;;12.70;100.00
14232;BME280;7200;52.194;9.900;2023-04-01T02:35:57;98387.84;;;12.82;100.00
14232;BME280;7200;52.194;9.900;2023-04-01T02:38:23;98387.63;;;12.85;100.00
14232;BME280;7200;52.194;9.900;2023-04-01T02:40:51;98390.25;;;12.85;100.00
14232;BME280;7200;52.194;9.900;2023-04-01T02:43:17;98375.09;;;12.76;100.00
14232;BME280;7200;52.194;9.900;2023-04-01T02:45:44;98403.50;;;12.97;100.00
14232;BME280;7200;52.194;9.900;2023-04-01T02:48:09;98391.34;;;12.83;100.00
14232;BME280;7200;52.194;9.900;2023-04-01T02:50:35;98377.16;;;12.73;100.00
14232;BME280;7200;52.194;9.900;2023-04-01T02:53:01;98420.91;;;12.88;100.00
14232;BME280;7200;52.194;9.900;2023-04-01T02:55:29;98424.28;;;12.90;100.00
14232;BME280;7200;52.194;9.900;2023-04-01T02:57:55;98397.00;;;12.90;100.00
14232;BME280;7200;52.194;9.900;2023-04-01T03:00:20;98415.50;;;13.01;100.00
14232;BME280;7200;52.194;9.900;2023-04-01T03:02:46;98402.66;;;12.96;100.00
14232;BME280;7200;52.194;9.900;2023-04-01T03:05:11;98366.06;;;12.56;100.00
14232;BME280;7200;52.194;9.900;2023-04-01T03:07:37;98390.03;;;12.66;100.00
14232;BME280;7200;52.194;9.900;2023-04-01T03:10:03;98391.56;;;12.57;100.00
14232;BME280;7200;52.194;9.900;2023-04-01T03:12:28;98414.78;;;12.88;100.00
14232;BME280;7200;52.194;9.900;2023-04-01T03:14:53;98414.06;;;12.85;100.00
14232;BME280;7200;52.194;9.900;2023-04-01T03:17:19;98430.06;;;12.95;100.00
14232;BME280;7200;52.194;9.900;2023-04-01T03:19:44;98412.53;;;12.94;100.00
14232;BME280;7200;52.194;9.900;2023-04-01T03:22:10;98426.22;;;12.99;100.00
14232;BME280;7200;52.194;9.900;2023-04-01T03:24:36;98443.22;;;13.31;100.00
14232;BME280;7200;52.194;9.900;2023-04-01T03:27:01;98410.47;;;13.20;100.00
14232;BME280;7200;52.194;9.900;2023-04-01T03:29:26;98395.75;;;13.16;100.00
14232;BME280;7200;52.194;9.900;2023-04-01T03:31:52;98387.72;;;12.95;100.00
14232;BME280;7200;52.194;9.900;2023-04-01T03:34:17;98380.28;;;12.89;100.00
14232;BME280;7200;52.194;9.900;2023-04-01T03:36:43;98391.22;;;12.84;100.00
14232;BME280;7200;52.194;9.900;2023-04-01T03:39:08;98387.63;;;12.74;100.00
14232;BME280;7200;52.194;9.900;2023-04-01T03:41:36;98417.31;;;13.00;100.00
14232;BME280;7200;52.194;9.900;2023-04-01T03:44:02;98394.72;;;12.74;100.00
14232;BME280;7200;52.194;9.900;2023-04-01T03:46:27;98406.75;;;12.89;100.00
14232;BME280;7200;52.194;9.900;2023-04-01T03:48:52;98393.63;;;12.88;100.00
14232;BME280;7200;52.194;9.900;2023-04-01T03:51:17;98394.47;;;12.88;100.00
14232;BME280;7200;52.194;9.900;2023-04-01T03:53:43;98406.97;;;13.31;100.00
14232;BME280;7200;52.194;9.900;2023-04-01T03:56:08;98387.69;;;13.18;100.00
14232;BME280;7200;52.194;9.900;2023-04-01T03:58:35;98384.22;;;13.17;100.00
14232;BME280;7200;52.194;9.900;2023-04-01T04:01:01;98391.44;;;13.38;100.00
14232;BME280;7200;52.194;9.900;2023-04-01T04:03:26;98386.16;;;13.38;100.00
14232;BME280;7200;52.194;9.900;2023-04-01T04:05:52;98401.41;;;13.46;100.00
14232;BME280;7200;52.194;9.900;2023-04-01T04:08:17;98385.31;;;13.37;100.00
14232;BME280;7200;52.194;9.900;2023-04-01T04:10:43;98375.19;;;13.31;100.00
14232;BME280;7200;52.194;9.900;2023-04-01T04:13:08;98383.63;;;13.36;100.00
14232;BME280;7200;52.194;9.900;2023-04-01T04:15:34;98359.31;;;13.09;100.00
14232;BME280;7200;52.194;9.900;2023-04-01T04:17:59;98367.97;;;12.99;100.00
14232;BME280;7200;52.194;9.900;2023-04-01T04:20:32;98405.19;;;13.32;100.00
14232;BME280;7200;52.194;9.900;2023-04-01T04:22:57;98405.75;;;13.24;100.00
14232;BME280;7200;52.194;9.900;2023-04-01T04:25:22;98394.31;;;13.23;100.00
14232;BME280;7200;52.194;9.900;2023-04-01T04:27:48;98369.31;;;12.94;100.00
14232;BME280;7200;52.194;9.900;2023-04-01T04:30:14;98377.03;;;12.85;100.00
14232;BME280;7200;52.194;9.900;2023-04-01T04:32:39;98403.13;;;13.01;100.00
14232;BME280;7200;52.194;9.900;2023-04-01T04:35:07;98433.44;;;13.20;100.00
14232;BME280;7200;52.194;9.900;2023-04-01T04:37:32;98424.06;;;13.16;100.00
14232;BME280;7200;52.194;9.900;2023-04-01T04:39:57;98407.22;;;12.94;100.00
14232;BME280;7200;52.194;9.900;2023-04-01T04:42:23;98410.22;;;12.90;100.00
14232;BME280;7200;52.194;9.900;2023-04-01T04:44:48;98422.75;;;12.99;100.00
14232;BME280;7200;52.194;9.900;2023-04-01T04:47:13;98404.69;;;12.81;100.00
14232;BME280;7200;52.194;9.900;2023-04-01T04:49:39;98420.47;;;12.83;100.00
14232;BME280;7200;52.194;9.900;2023-04-01T04:52:04;98412.75;;;12.91;100.00
14232;BME280;7200;52.194;9.900;2023-04-01T04:54:29;98432.38;;;12.77;100.00
14232;BME280;7200;52.194;9.900;2023-04-01T04:56:55;98438.50;;;12.78;100.00
14232;BME280;7200;52.194;9.900;2023-04-01T04:59:20;98465.19;;;12.86;100.00
14232;BME280;7200;52.194;9.900;2023-04-01T05:01:45;98462.91;;;12.81;100.00
14232;BME280;7200;52.194;9.900;2023-04-01T05:04:11;98472.19;;;12.87;100.00
14232;BME280;7200;52.194;9.900;2023-04-01T05:06:36;98471.34;;;12.87;100.00
14232;BME280;7200;52.194;9.900;2023-04-01T05:09:01;98467.72;;;12.76;100.00
14232;BME280;7200;52.194;9.900;2023-04-01T05:11:27;98451.00;;;12.64;100.00
14232;BME280;7200;52.194;9.900;2023-04-01T05:13:52;98458.53;;;12.58;100.00
14232;BME280;7200;52.194;9.900;2023-04-01T05:16:19;98489.47;;;12.69;100.00
14232;BME280;7200;52.194;9.900;2023-04-01T05:18:46;98502.22;;;12.75;100.00
14232;BME280;7200;52.194;9.900;2023-04-01T05:21:12;98489.97;;;12.74;100.00
14232;BME280;7200;52.194;9.900;2023-04-01T05:23:38;98481.91;;;12.64;100.00
14232;BME280;7200;52.194;9.900;2023-04-01T05:26:05;98487.31;;;12.62;100.00
14232;BME280;7200;52.194;9.900;2023-04-01T05:28:30;98488.13;;;12.63;100.00
14232;BME280;7200;52.194;9.900;2023-04-01T05:30:58;98497.88;;;12.62;100.00
14232;BME280;7200;52.194;9.900;2023-04-01T05:33:24;98504.25;;;12.71;100.00
14232;BME280;7200;52.194;9.900;2023-04-01T05:35:49;98511.47;;;12.69;100.00
14232;BME280;7200;52.194;9.900;2023-04-01T05:38:15;98497.28;;;12.59;100.00
14232;BME280;7200;52.194;9.900;2023-04-01T05:40:40;98519.78;;;12.64;100.00
14232;BME280;7200;52.194;9.900;2023-04-01T05:43:05;98513.91;;;12.72;100.00
14232;BME280;7200;52.194;9.900;2023-04-01T05:45:31;98526.66;;;12.78;100.00
14232;BME280;7200;52.194;9.900;2023-04-01T05:47:56;98511.34;;;12.71;100.00
14232;BME280;7200;52.194;9.900;2023-04-01T05:50:21;98510.63;;;12.69;100.00
14232;BME280;7200;52.194;9.900;2023-04-01T05:52:47;98523.50;;;12.73;100.00
14232;BME280;7200;52.194;9.900;2023-04-01T05:55:12;98531.09;;;12.78;100.00
14232;BME280;7200;52.194;9.900;2023-04-01T05:57:37;98527.16;;;12.83;100.00
14232;BME280;7200;52.194;9.900;2023-04-01T06:00:04;98536.91;;;12.83;100.00
14232;BME280;7200;52.194;9.900;2023-04-01T06:02:29;98537.75;;;12.83;100.00
14232;BME280;7200;52.194;9.900;2023-04-01T06:05:23;98545.47;;;12.87;100.00
14232;BME280;7200;52.194;9.900;2023-04-01T06:07:47;98523.75;;;12.70;100.00
14232;BME280;7200;52.194;9.900;2023-04-01T06:10:18;98554.47;;;12.95;100.00
14232;BME280;7200;52.194;9.900;2023-04-01T06:12:53;98542.81;;;12.87;100.00
14232;BME280;7200;52.194;9.900;2023-04-01T06:15:52;98550.88;;;12.96;100.00
14232;BME280;7200;52.194;9.900;2023-04-01T06:23:48;98552.47;;;13.21;100.00
14232;BME280;7200;52.194;9.900;2023-04-01T06:26:25;98525.25;;;12.97;100.00
14232;BME280;7200;52.194;9.900;2023-04-01T06:31:57;98555.28;;;13.31;100.00
14232;BME280;7200;52.194;9.900;2023-04-01T06:43:07;98537.34;;;13.69;100.00
14232;BME280;7200;52.194;9.900;2023-04-01T06:51:22;98556.38;;;13.74;100.00
14232;BME280;7200;52.194;9.900;2023-04-01T06:54:21;98506.03;;;13.29;100.00
14232;BME280;7200;52.194;9.900;2023-04-01T06:56:54;98539.88;;;13.36;100.00
14232;BME280;7200;52.194;9.900;2023-04-01T06:59:26;98567.22;;;13.48;100.00
14232;BME280;7200;52.194;9.900;2023-04-01T07:01:59;98560.59;;;13.54;100.00
14232;BME280;7200;52.194;9.900;2023-04-01T07:04:30;98562.78;;;13.49;100.00
14232;BME280;7200;52.194;9.900;2023-04-01T07:06:59;98585.53;;;13.62;100.00
14232;BME280;7200;52.194;9.900;2023-04-01T07:09:38;98597.31;;;13.81;100.00
14232;BME280;7200;52.194;9.900;2023-04-01T07:12:20;98580.72;;;13.79;100.00
14232;BME280;7200;52.194;9.900;2023-04-01T07:14:49;98520.22;;;13.28;100.00
14232;BME280;7200;52.194;9.900;2023-04-01T07:17:28;98591.03;;;13.82;100.00
14232;BME280;7200;52.194;9.900;2023-04-01T07:20:05;98598.16;;;13.93;100.00
14232;BME280;7200;52.194;9.900;2023-04-01T07:22:40;98614.59;;;14.30;100.00
14232;BME280;7200;52.194;9.900;2023-04-01T07:27:39;98582.72;;;14.09;100.00
14232;BME280;7200;52.194;9.900;2023-04-01T07:30:13;98589.06;;;14.18;100.00
14232;BME280;7200;52.194;9.900;2023-04-01T07:35:45;98586.78;;;14.13;100.00
14232;BME280;7200;52.194;9.900;2023-04-01T07:38:22;98575.69;;;14.19;100.00
14232;BME280;7200;52.194;9.900;2023-04-01T07:43:59;98597.72;;;14.20;100.00
14232;BME280;7200;52.194;9.900;2023-04-01T07:46:38;98590.28;;;14.14;100.00
14232;BME280;7200;52.194;9.900;2023-04-01T07:49:10;98591.34;;;14.23;100.00
14232;BME280;7200;52.194;9.900;2023-04-01T07:54:22;98618.16;;;14.63;100.00
14232;BME280;7200;52.194;9.900;2023-04-01T07:59:47;98581.28;;;14.49;100.00
14232;BME280;7200;52.194;9.900;2023-04-01T08:18:43;98631.56;;;14.94;100.00
14232;BME280;7200;52.194;9.900;2023-04-01T08:21:30;98614.81;;;14.82;100.00
14232;BME280;7200;52.194;9.900;2023-04-01T08:24:02;98580.88;;;14.65;100.00
14232;BME280;7200;52.194;9.900;2023-04-01T08:26:46;98597.63;;;14.65;100.00
14232;BME280;7200;52.194;9.900;2023-04-01T08:29:31;98580.88;;;14.65;100.00
14232;BME280;7200;52.194;9.900;2023-04-01T08:32:14;98570.97;;;14.55;100.00
14232;BME280;7200;52.194;9.900;2023-04-01T08:34:46;98584.22;;;14.67;100.00
14232;BME280;7200;52.194;9.900;2023-04-01T08:37:16;98561.56;;;14.63;100.00
14232;BME280;7200;52.194;9.900;2023-04-01T08:39:48;98583.34;;;14.77;100.00
14232;BME280;7200;52.194;9.900;2023-04-01T08:48:28;98565.19;;;14.62;100.00
14232;BME280;7200;52.194;9.900;2023-04-01T08:59:12;98621.66;;;15.69;100.00
14232;BME280;7200;52.194;9.900;2023-04-01T09:01:52;98566.19;;;15.03;100.00
14232;BME280;7200;52.194;9.900;2023-04-01T09:05:40;98545.22;;;14.99;100.00
14232;BME280;7200;52.194;9.900;2023-04-01T09:12:50;98559.97;;;14.92;100.00
14232;BME280;7200;52.194;9.900;2023-04-01T09:21:34;98504.53;;;14.78;100.00
14232;BME280;7200;52.194;9.900;2023-04-01T09:27:05;98573.66;;;15.09;100.00
14232;BME280;7200;52.194;9.900;2023-04-01T09:29:51;98556.28;;;15.26;100.00
14232;BME280;7200;52.194;9.900;2023-04-01T09:32:51;98574.31;;;15.53;100.00
14232;BME280;7200;52.194;9.900;2023-04-01T09:38:28;98639.59;;;15.98;100.00
14232;BME280;7200;52.194;9.900;2023-04-01T09:40:55;98585.59;;;15.76;100.00
14232;BME280;7200;52.194;9.900;2023-04-01T09:47:10;98568.03;;;15.85;100.00
14232;BME280;7200;52.194;9.900;2023-04-01T09:55:54;98554.72;;;15.23;100.00
14232;BME280;7200;52.194;9.900;2023-04-01T10:15:41;98663.50;;;16.38;100.00
14232;BME280;7200;52.194;9.900;2023-04-01T10:18:40;98637.63;;;16.00;100.00
14232;BME280;7200;52.194;9.900;2023-04-01T10:21:28;98664.72;;;16.14;100.00
14232;BME280;7200;52.194;9.900;2023-04-01T10:27:06;98632.28;;;15.69;100.00
14232;BME280;7200;52.194;9.900;2023-04-01T10:29:49;98659.38;;;15.84;100.00
14232;BME280;7200;52.194;9.900;2023-04-01T10:32:46;98662.56;;;16.08;100.00
14232;BME280;7200;52.194;9.900;2023-04-01T10:35:43;98673.28;;;16.18;100.00
14232;BME280;7200;52.194;9.900;2023-04-01T10:38:48;98677.06;;;16.25;100.00
14232;BME280;7200;52.194;9.900;2023-04-01T10:41:45;98669.38;;;16.22;100.00
14232;BME280;7200;52.194;9.900;2023-04-01T10:55:48;98691.31;;;16.14;100.00
14232;BME280;7200;52.194;9.900;2023-04-01T11:10:47;98707.25;;;16.45;100.00
14232;BME280;7200;52.194;9.900;2023-04-01T11:21:49;98692.75;;;16.79;100.00
14232;BME280;7200;52.194;9.900;2023-04-01T11:55:10;98678.22;;;17.22;100.00
14232;BME280;7200;52.194;9.900;2023-04-01T11:58:11;98720.56;;;17.44;100.00
14232;BME280;7200;52.194;9.900;2023-04-01T12:00:57;98711.69;;;17.63;100.00
14232;BME280;7200;52.194;9.900;2023-04-01T12:03:32;98694.28;;;17.69;100.00
14232;BME280;7200;52.194;9.900;2023-04-01T12:06:19;98687.59;;;17.26;100.00
14232;BME280;7200;52.194;9.900;2023-04-01T12:14:16;98742.13;;;17.90;100.00
14232;BME280;7200;52.194;9.900;2023-04-01T12:16:55;98662.06;;;17.33;100.00
14232;BME280;7200;52.194;9.900;2023-04-01T12:22:07;98668.34;;;16.64;100.00
14232;BME280;7200;52.194;9.900;2023-04-01T12:27:41;98742.88;;;17.34;100.00
14232;BME280;7200;52.194;9.900;2023-04-01T12:33:02;98675.50;;;16.73;100.00
14232;BME280;7200;52.194;9.900;2023-04-01T12:36:00;98670.44;;;16.70;100.00
14232;BME280;7200;52.194;9.900;2023-04-01T12:52:04;98729.66;;;16.93;100.00
14232;BME280;7200;52.194;9.900;2023-04-01T13:08:59;98732.22;;;17.24;100.00
14232;BME280;7200;52.194;9.900;2023-04-01T13:14:17;98703.16;;;17.30;100.00
14232;BME280;7200;52.194;9.900;2023-04-01T13:17:04;98713.88;;;17.78;100.00
14232;BME280;7200;52.194;9.900;2023-04-01T13:22:27;98732.94;;;18.02;100.00
14232;BME280;7200;52.194;9.900;2023-04-01T13:25:00;98724.88;;;17.84;100.00
14232;BME280;7200;52.194;9.900;2023-04-01T13:27:35;98671.19;;;17.21;100.00
14232;BME280;7200;52.194;9.900;2023-04-01T13:33:04;98730.38;;;17.15;100.00
14232;BME280;7200;52.194;9.900;2023-04-01T13:35:34;98729.81;;;17.50;100.00
14232;BME280;7200;52.194;9.900;2023-04-01T13:41:15;98695.03;;;17.12;100.00
14232;BME280;7200;52.194;9.900;2023-04-01T13:43:47;98683.06;;;16.27;100.00
14232;BME280;7200;52.194;9.900;2023-04-01T13:52:46;98738.03;;;15.76;100.00
14232;BME280;7200;52.194;9.900;2023-04-01T14:05:35;98767.63;;;15.51;100.00
14232;BME280;7200;52.194;9.900;2023-04-01T14:08:39;98780.50;;;15.55;100.00
14232;BME280;7200;52.194;9.900;2023-04-01T14:16:55;98789.44;;;14.67;100.00
14232;BME280;7200;52.194;9.900;2023-04-01T14:22:44;98815.38;;;14.41;100.00
14232;BME280;7200;52.194;9.900;2023-04-01T14:42:23;98904.91;;;14.04;100.00
14232;BME280;7200;52.194;9.900;2023-04-01T14:48:00;98926.16;;;14.15;100.00
14232;BME280;7200;52.194;9.900;2023-04-01T14:50:41;98955.19;;;14.52;100.00
14232;BME280;7200;52.194;9.900;2023-04-01T14:55:52;98921.19;;;14.57;100.00
14232;BME280;7200;52.194;9.900;2023-04-01T14:58:20;98907.28;;;14.53;100.00
14232;BME280;7200;52.194;9.900;2023-04-01T15:17:53;98931.66;;;12.51;100.00
14232;BME280;7200;52.194;9.900;2023-04-01T15:20:33;98944.25;;;12.48;100.00
14232;BME280;7200;52.194;9.900;2023-04-01T15:32:24;99013.69;;;12.64;100.00
14232;BME280;7200;52.194;9.900;2023-04-01T15:46:11;99028.06;;;12.47;100.00
14232;BME280;7200;52.194;9.900;2023-04-01T15:49:03;99005.59;;;12.00;100.00
14232;BME280;7200;52.194;9.900;2023-04-01T15:51:48;99047.06;;;12.12;100.00
14232;BME280;7200;52.194;9.900;2023-04-01T15:57:56;99029.09;;;11.90;100.00
14232;BME280;7200;52.194;9.900;2023-04-01T16:03:29;99048.13;;;11.68;100.00
14232;BME280;7200;52.194;9.900;2023-04-01T16:06:14;99062.44;;;11.64;100.00
14232;BME280;7200;52.194;9.900;2023-04-01T16:09:03;99073.84;;;11.79;100.00
14232;BME280;7200;52.194;9.900;2023-04-01T16:12:04;99075.56;;;11.65;100.00
14232;BME280;7200;52.194;9.900;2023-04-01T16:20:35;99093.78;;;11.41;100.00
14232;BME280;7200;52.194;9.900;2023-04-01T16:23:18;99095.88;;;11.36;100.00
14232;BME280;7200;52.194;9.900;2023-04-01T16:28:33;99082.72;;;11.06;100.00
14232;BME280;7200;52.194;9.900;2023-04-01T16:31:09;99067.78;;;10.76;100.00
14232;BME280;7200;52.194;9.900;2023-04-01T16:39:07;99151.03;;;10.96;100.00
14232;BME280;7200;52.194;9.900;2023-04-01T16:41:37;99124.16;;;10.89;100.00
14232;BME280;7200;52.194;9.900;2023-04-01T16:44:24;99129.44;;;10.89;100.00
14232;BME280;7200;52.194;9.900;2023-04-01T16:46:51;99118.81;;;10.91;100.00
14232;BME280;7200;52.194;9.900;2023-04-01T16:49:37;99153.00;;;11.23;100.00
14232;BME280;7200;52.194;9.900;2023-04-01T16:54:44;99178.19;;;11.28;100.00
14232;BME280;7200;52.194;9.900;2023-04-01T16:57:18;99170.38;;;11.11;100.00
14232;BME280;7200;52.194;9.900;2023-04-01T17:02:47;99180.56;;;11.03;100.00
14232;BME280;7200;52.194;9.900;2023-04-01T17:05:15;99177.25;;;10.99;100.00
14232;BME280;7200;52.194;9.900;2023-04-01T17:07:56;99187.50;;;10.89;100.00
14232;BME280;7200;52.194;9.900;2023-04-01T17:13:50;99198.94;;;10.58;100.00
14232;BME280;7200;52.194;9.900;2023-04-01T17:21:55;99222.00;;;10.39;100.00
14232;BME280;7200;52.194;9.900;2023-04-01T17:30:05;99249.19;;;10.39;100.00
14232;BME280;7200;52.194;9.900;2023-04-01T17:32:51;99244.50;;;10.28;100.00
14232;BME280;7200;52.194;9.900;2023-04-01T17:35:40;99239.81;;;10.18;100.00
14232;BME280;7200;52.194;9.900;2023-04-01T17:38:17;99228.38;;;10.01;100.00
14232;BME280;7200;52.194;9.900;2023-04-01T17:40:49;99245.63;;;9.91;100.00
14232;BME280;7200;52.194;9.900;2023-04-01T17:43:31;99248.66;;;9.83;100.00
14232;BME280;7200;52.194;9.900;2023-04-01T17:46:09;99278.69;;;9.97;100.00
14232;BME280;7200;52.194;9.900;2023-04-01T17:48:54;99270.25;;;9.90;100.00
14232;BME280;7200;52.194;9.900;2023-04-01T17:51:34;99299.38;;;10.04;100.00
14232;BME280;7200;52.194;9.900;2023-04-01T17:54:17;99279.09;;;9.71;100.00
14232;BME280;7200;52.194;9.900;2023-04-01T18:00:37;99309.91;;;9.87;100.00
14232;BME280;7200;52.194;9.900;2023-04-01T18:11:13;99350.59;;;9.99;100.00
14232;BME280;7200;52.194;9.900;2023-04-01T18:19:44;99351.75;;;9.75;100.00
14232;BME280;7200;52.194;9.900;2023-04-01T18:22:21;99359.59;;;9.60;100.00
14232;BME280;7200;52.194;9.900;2023-04-01T18:27:17;99376.59;;;9.52;100.00
14232;BME280;7200;52.194;9.900;2023-04-01T18:37:54;99410.66;;;9.38;100.00
14232;BME280;7200;52.194;9.900;2023-04-01T18:40:28;99428.00;;;9.42;100.00
14232;BME280;7200;52.194;9.900;2023-04-01T18:46:34;99427.16;;;9.23;100.00
14232;BME280;7200;52.194;9.900;2023-04-01T18:49:29;99461.88;;;9.31;100.00
14232;BME280;7200;52.194;9.900;2023-04-01T18:51:58;99477.66;;;9.50;100.00
14232;BME280;7200;52.194;9.900;2023-04-01T18:54:33;99438.97;;;9.33;100.00
14232;BME280;7200;52.194;9.900;2023-04-01T18:57:16;99436.19;;;9.17;100.00
14232;BME280;7200;52.194;9.900;2023-04-01T19:03:12;99454.06;;;9.10;100.00
14232;BME280;7200;52.194;9.900;2023-04-01T19:05:45;99450.34;;;8.95;100.00
14232;BME280;7200;52.194;9.900;2023-04-01T19:08:26;99481.72;;;9.19;100.00
14232;BME280;7200;52.194;9.900;2023-04-01T19:16:28;99470.09;;;8.85;100.00
14232;BME280;7200;52.194;9.900;2023-04-01T19:21:41;99503.75;;;8.98;100.00
14232;BME280;7200;52.194;9.900;2023-04-01T19:27:31;99517.28;;;9.09;100.00
14232;BME280;7200;52.194;9.900;2023-04-01T19:32:55;99517.44;;;8.85;100.00
14232;BME280;7200;52.194;9.900;2023-04-01T19:35:34;99521.78;;;8.86;100.00
14232;BME280;7200;52.194;9.900;2023-04-01T19:38:08;99516.16;;;8.75;100.00
14232;BME280;7200;52.194;9.900;2023-04-01T19:40:51;99554.97;;;8.89;100.00
14232;BME280;7200;52.194;9.900;2023-04-01T19:51:50;99543.94;;;8.81;100.00
14232;BME280;7200;52.194;9.900;2023-04-01T19:57:00;99528.44;;;8.54;100.00
14232;BME280;7200;52.194;9.900;2023-04-01T19:59:42;99568.75;;;8.75;100.00
14232;BME280;7200;52.194;9.900;2023-04-01T20:04:45;99563.34;;;8.57;100.00
14232;BME280;7200;52.194;9.900;2023-04-01T20:07:15;99569.72;;;8.52;100.00
14232;BME280;7200;52.194;9.900;2023-04-01T20:09:59;99608.50;;;8.67;100.00
14232;BME280;7200;52.194;9.900;2023-04-01T20:15:36;99610.69;;;8.57;100.00
14232;BME280;7200;52.194;9.900;2023-04-01T20:20:39;99614.78;;;8.43;100.00
14232;BME280;7200;52.194;9.900;2023-04-01T20:23:06;99645.34;;;8.45;100.00
14232;BME280;7200;52.194;9.900;2023-04-01T20:26:10;99634.41;;;8.32;100.00
14232;BME280;7200;52.194;9.900;2023-04-01T20:28:47;99659.50;;;8.41;100.00
14232;BME280;7200;52.194;9.900;2023-04-01T20:34:12;99641.97;;;8.19;100.00
14232;BME280;7200;52.194;9.900;2023-04-01T20:36:58;99635.41;;;8.08;100.00
14232;BME280;7200;52.194;9.900;2023-04-01T20:39:39;99657.34;;;8.07;100.00
14232;BME280;7200;52.194;9.900;2023-04-01T20:42:26;99662.09;;;7.97;100.00
14232;BME280;7200;52.194;9.900;2023-04-01T20:45:30;99688.19;;;8.02;100.00
14232;BME280;7200;52.194;9.900;2023-04-01T20:48:15;99681.63;;;7.90;100.00
14232;BME280;7200;52.194;9.900;2023-04-01T20:51:25;99639.66;;;7.41;100.00
14232;BME280;7200;52.194;9.900;2023-04-01T20:54:18;99699.94;;;7.68;100.00
14232;BME280;7200;52.194;9.900;2023-04-01T20:56:56;99674.84;;;7.59;100.00